Bowesmont, North Dakota
Current Conditions -  °F | °C
As of 1:33 AM on Wednesday 26 Nov 2014 (Local Time) from KHCO Reporting Station
Clear Clear  
Wind Chill: -14°   Ceiling: Unl
Heat Index:   Visibility: 10mi
Dew Point: -2°   Wind: 13mph
Humidity: 78%   Direction: 350°N
Pressure: 30.23"   Gusts: NA
Location:  48.6338°N, 97.2651°W
Report Text: KHCO 260733Z AUTO 35011KT 10SM CLR M16/M19 A3023 RMK AO2
Loading
Personal Weather Stations






























Interactive Weather Map New forecast layout! Learn more

10-Day Weather Forecast

Advertisements
Track Severe Weather on mobile